Time;durP1;ratioP1;P1;durP2;ratioP2;P2;SDS_P1;SDS_P2;PMS_P1;PMS_P2;Temp;Humidity;BMP_temperature;BMP_pressure;BME280_temperature;BME280_humidity;BME280_pressure;Samples;Min_cycle;Max_cycle;Signal;HPM_P1;HPM_P2
2023/03/14 00:00:34;;;;;;;9.30;2.63;;;9.40;99.90;;;;;;5048929;28;20032;-56
2023/03/14 00:03:00;;;;;;;8.68;2.67;;;9.50;99.90;;;;;;5049491;28;20028;-58
2023/03/14 00:05:25;;;;;;;6.05;2.25;;;9.40;99.90;;;;;;5048605;28;21337;-59
2023/03/14 00:07:51;;;;;;;6.38;2.67;;;9.40;99.90;;;;;;5048226;28;20017;-57
2023/03/14 00:10:17;;;;;;;8.90;2.25;;;9.40;99.90;;;;;;5049118;28;20024;-58
2023/03/14 00:12:43;;;;;;;7.13;2.13;;;9.40;99.90;;;;;;5047842;28;20116;-57
2023/03/14 00:15:10;;;;;;;9.40;2.97;;;9.40;99.90;;;;;;5048723;28;20021;-58
2023/03/14 00:17:36;;;;;;;6.72;2.33;;;9.40;99.90;;;;;;5048990;28;20453;-59
2023/03/14 00:20:07;;;;;;;4.68;2.67;;;9.30;99.90;;;;;;5043238;28;20052;-59
2023/03/14 00:22:34;;;;;;;7.43;2.72;;;9.30;99.90;;;;;;5048839;28;20025;-58
2023/03/14 00:25:00;;;;;;;5.75;2.45;;;9.30;99.90;;;;;;5048918;28;20466;-59
2023/03/14 00:27:25;;;;;;;5.50;2.50;;;9.30;99.90;;;;;;5051451;28;20017;-58
2023/03/14 00:29:51;;;;;;;3.38;2.50;;;9.30;99.90;;;;;;5048451;28;20028;-58
2023/03/14 00:32:16;;;;;;;5.88;2.35;;;9.30;99.90;;;;;;5040187;28;20432;-56
2023/03/14 00:34:42;;;;;;;7.20;2.85;;;9.30;99.90;;;;;;5046774;28;20032;-59
2023/03/14 00:37:08;;;;;;;4.85;2.92;;;9.30;99.90;;;;;;5043840;28;20119;-58
2023/03/14 00:39:33;;;;;;;8.25;3.05;;;9.40;99.90;;;;;;5039713;28;20107;-57
2023/03/14 00:41:59;;;;;;;6.47;2.75;;;9.40;99.90;;;;;;5042470;28;20028;-58
2023/03/14 00:44:24;;;;;;;5.78;2.28;;;9.40;99.90;;;;;;5048536;28;20402;-58
2023/03/14 00:46:50;;;;;;;4.75;2.08;;;9.50;99.90;;;;;;5080455;28;20025;-55
2023/03/14 00:49:16;;;;;;;7.00;2.90;;;9.50;99.90;;;;;;5043829;28;20457;-54
2023/03/14 00:51:41;;;;;;;6.68;2.92;;;9.60;99.90;;;;;;5047097;28;20094;-59
2023/03/14 00:54:07;;;;;;;8.32;2.25;;;9.60;99.90;;;;;;5048404;28;20479;-60
2023/03/14 00:56:32;;;;;;;9.35;2.25;;;9.70;99.90;;;;;;5048568;28;20537;-58
2023/03/14 00:58:58;;;;;;;8.80;2.60;;;9.70;99.90;;;;;;5048197;28;20347;-57
2023/03/14 01:01:24;;;;;;;9.25;3.17;;;9.70;99.90;;;;;;5044940;28;20147;-56
2023/03/14 01:03:54;;;;;;;5.18;2.50;;;9.60;99.90;;;;;;5044798;28;20022;-57
2023/03/14 01:06:26;;;;;;;6.15;2.17;;;9.60;99.90;;;;;;5046929;28;20119;-57
2023/03/14 01:08:53;;;;;;;7.47;3.20;;;9.70;99.90;;;;;;5047017;28;20107;-56
2023/03/14 01:11:22;;;;;;;9.10;3.13;;;9.60;99.90;;;;;;5047586;28;20395;-55
2023/03/14 01:13:48;;;;;;;8.55;2.40;;;9.60;99.90;;;;;;5046890;28;20021;-59
2023/03/14 01:16:14;;;;;;;7.90;2.63;;;9.70;99.90;;;;;;5048302;28;20063;-58
2023/03/14 01:18:43;;;;;;;9.25;2.35;;;9.70;99.90;;;;;;5046188;28;20391;-55
2023/03/14 01:21:19;;;;;;;10.27;2.28;;;9.70;99.90;;;;;;5045358;28;20021;-55
2023/03/14 01:23:45;;;;;;;;;;;9.70;99.90;;;;;;5048380;28;20078;-59
2023/03/14 01:26:13;;;;;;;8.75;2.72;;;9.70;99.90;;;;;;5049929;28;19935;-59
2023/03/14 01:28:39;;;;;;;7.45;2.40;;;9.80;99.90;;;;;;5049719;28;20522;-55
2023/03/14 01:31:08;;;;;;;7.32;3.00;;;9.80;99.90;;;;;;5048802;28;20068;-58
2023/03/14 01:33:33;;;;;;;7.38;2.92;;;9.80;99.90;;;;;;5051823;28;20364;-56
2023/03/14 01:36:01;;;;;;;10.10;2.50;;;9.90;99.90;;;;;;5047283;28;20025;-58
2023/03/14 01:38:30;;;;;;;7.03;2.70;;;9.90;99.90;;;;;;5045561;28;20490;-56
2023/03/14 01:40:56;;;;;;;7.53;3.05;;;9.90;99.90;;;;;;5050352;28;20167;-58
2023/03/14 01:43:24;;;;;;;9.18;2.80;;;9.90;99.90;;;;;;5048353;28;20037;-56
2023/03/14 01:46:05;;;;;;;8.90;2.58;;;9.90;99.90;;;;;;5050393;28;20047;-58
2023/03/14 01:48:45;;;;;;;9.02;3.05;;;9.90;99.90;;;;;;5051715;28;20044;-58
2023/03/14 01:51:45;;;;;;;7.90;2.50;;;9.90;99.90;;;;;;5051902;28;20025;-57
2023/03/14 01:54:35;;;;;;;7.60;2.97;;;10.00;99.90;;;;;;5038012;28;20043;-58
2023/03/14 01:57:42;;;;;;;7.80;2.50;;;10.00;99.90;;;;;;5048844;28;20083;-58
2023/03/14 02:00:14;;;;;;;11.63;2.20;;;10.00;99.90;;;;;;4976552;28;20018;-58
2023/03/14 02:02:43;;;;;;;9.77;2.78;;;10.00;99.90;;;;;;5033108;28;20031;-57
2023/03/14 02:05:10;;;;;;;4.35;2.40;;;9.90;99.90;;;;;;5049517;28;20099;-58
2023/03/14 02:07:49;;;;;;;3.78;2.00;;;9.90;99.90;;;;;;5051310;28;20104;-56
2023/03/14 02:10:18;;;;;;;5.95;1.92;;;9.90;99.90;;;;;;5051267;28;20024;-59
2023/03/14 02:12:45;;;;;;;6.72;2.65;;;9.80;99.90;;;;;;5049521;28;20025;-56
2023/03/14 02:15:11;;;;;;;4.03;2.20;;;9.80;99.90;;;;;;5050969;28;20375;-59
2023/03/14 02:17:37;;;;;;;5.93;2.55;;;9.80;99.90;;;;;;5049957;28;20029;-56
2023/03/14 02:20:27;;;;;;;5.93;2.50;;;9.80;99.90;;;;;;5050304;28;20367;-54
2023/03/14 02:22:53;;;;;;;4.60;2.00;;;9.80;99.90;;;;;;5049005;28;20037;-57
2023/03/14 02:25:34;;;;;;;4.00;2.17;;;9.70;99.90;;;;;;5050975;28;20036;-56
2023/03/14 02:28:00;;;;;;;4.30;2.10;;;9.70;99.90;;;;;;5050696;28;20113;-60
2023/03/14 02:30:28;;;;;;;5.45;2.47;;;9.70;99.90;;;;;;5044581;28;20028;-60
2023/03/14 02:33:02;;;;;;;6.80;2.42;;;9.70;99.90;;;;;;5050785;28;20112;-56
2023/03/14 02:35:34;;;;;;;4.63;2.53;;;9.70;99.90;;;;;;5051109;28;20158;-58
2023/03/14 02:38:03;;;;;;;7.95;2.58;;;9.70;99.90;;;;;;5050606;28;20021;-58
2023/03/14 02:40:28;;;;;;;5.15;2.80;;;9.70;99.90;;;;;;5050433;28;20509;-56
2023/03/14 02:42:54;;;;;;;6.63;3.30;;;9.70;99.90;;;;;;5050346;28;20116;-58
2023/03/14 02:45:36;;;;;;;8.15;2.83;;;9.70;99.90;;;;;;5050025;28;20094;-54
2023/03/14 02:48:07;;;;;;;8.02;2.80;;;9.70;99.90;;;;;;5050767;28;20024;-57
2023/03/14 02:50:34;;;;;;;5.53;2.08;;;9.70;99.90;;;;;;5049492;28;20376;-56
2023/03/14 02:52:59;;;;;;;6.63;3.10;;;9.70;99.90;;;;;;5049241;28;20522;-58
2023/03/14 02:55:26;;;;;;;5.45;2.42;;;9.70;99.90;;;;;;5050025;28;20048;-56
2023/03/14 02:57:52;;;;;;;5.35;2.97;;;9.80;99.90;;;;;;5050207;28;20020;-58
2023/03/14 03:00:18;;;;;;;6.88;3.28;;;9.80;99.90;;;;;;5050229;28;20226;-58
2023/03/14 03:02:45;;;;;;;5.32;3.25;;;9.80;99.90;;;;;;5050362;28;20033;-57
2023/03/14 03:05:10;;;;;;;4.28;2.50;;;9.80;99.90;;;;;;5049915;28;20503;-58
2023/03/14 03:07:36;;;;;;;7.13;3.08;;;9.80;99.90;;;;;;5050877;28;20040;-55
2023/03/14 03:10:02;;;;;;;7.40;3.55;;;9.90;99.90;;;;;;5050326;28;20112;-54
2023/03/14 03:12:27;;;;;;;5.43;2.70;;;9.90;99.90;;;;;;5050127;28;20112;-56
2023/03/14 03:14:53;;;;;;;7.65;2.90;;;9.90;99.90;;;;;;5050251;28;20119;-57
2023/03/14 03:17:18;;;;;;;9.40;3.10;;;9.90;99.90;;;;;;5049967;28;20109;-58
2023/03/14 03:19:44;;;;;;;7.38;2.75;;;9.90;99.90;;;;;;5049781;28;20037;-53
2023/03/14 03:22:10;;;;;;;8.68;3.10;;;9.90;99.90;;;;;;5048247;28;20025;-55
2023/03/14 03:24:35;;;;;;;6.90;3.40;;;9.90;99.90;;;;;;5050121;28;20029;-56
2023/03/14 03:27:01;;;;;;;6.75;3.22;;;9.90;99.90;;;;;;5049940;28;20033;-58
2023/03/14 03:29:26;;;;;;;7.95;3.50;;;10.00;99.90;;;;;;5049517;28;20029;-57
2023/03/14 03:31:52;;;;;;;8.95;3.72;;;10.00;99.90;;;;;;5049591;28;20519;-58
2023/03/14 03:34:18;;;;;;;6.80;3.50;;;10.00;99.90;;;;;;5049737;28;20029;-54
2023/03/14 03:36:44;;;;;;;8.02;3.45;;;10.00;99.90;;;;;;5049443;28;20048;-55
2023/03/14 03:39:09;;;;;;;5.60;3.13;;;10.10;99.90;;;;;;5049178;28;20025;-59
2023/03/14 03:41:35;;;;;;;4.20;2.85;;;10.10;99.90;;;;;;5049249;28;20044;-57
2023/03/14 03:44:00;;;;;;;6.70;3.72;;;10.10;99.90;;;;;;5049606;28;20016;-58
2023/03/14 03:46:26;;;;;;;5.57;3.40;;;10.10;99.90;;;;;;5049010;28;20488;-55
2023/03/14 03:48:56;;;;;;;5.05;3.17;;;10.20;99.90;;;;;;5048113;28;20040;-58
2023/03/14 03:51:21;;;;;;;6.53;3.03;;;10.20;99.90;;;;;;5049443;28;20041;-57
2023/03/14 03:53:47;;;;;;;5.80;3.20;;;10.20;99.90;;;;;;5049385;28;20607;-57
2023/03/14 03:56:13;;;;;;;3.42;2.70;;;10.20;99.90;;;;;;5049667;28;20021;-56
2023/03/14 03:58:38;;;;;;;6.55;2.83;;;10.20;99.90;;;;;;5047830;28;20021;-61
2023/03/14 04:01:06;;;;;;;7.65;3.25;;;10.20;99.90;;;;;;5049329;28;20040;-58
2023/03/14 04:03:32;;;;;;;6.10;2.88;;;10.20;99.90;;;;;;5049106;28;20263;-59
2023/03/14 04:06:07;;;;;;;5.15;2.22;;;10.20;99.90;;;;;;5049257;28;20049;-54
2023/03/14 04:08:33;;;;;;;6.65;3.17;;;10.20;99.90;;;;;;5049283;28;20091;-58
2023/03/14 04:11:00;;;;;;;5.15;3.13;;;10.20;99.90;;;;;;5048914;28;20028;-58
2023/03/14 04:13:27;;;;;;;3.70;2.45;;;10.30;99.90;;;;;;5049103;28;20065;-57
2023/03/14 04:15:54;;;;;;;8.52;2.53;;;10.20;99.90;;;;;;5048534;28;20501;-58
2023/03/14 04:18:20;;;;;;;6.97;3.08;;;10.20;99.90;;;;;;5049018;28;20552;-59
2023/03/14 04:20:50;;;;;;;7.60;3.25;;;10.20;99.90;;;;;;5047454;28;20434;-57
2023/03/14 04:23:15;;;;;;;6.38;2.72;;;10.20;99.90;;;;;;5047430;28;20024;-54
2023/03/14 04:25:41;;;;;;;8.55;3.28;;;10.20;99.90;;;;;;5048726;28;20029;-56
2023/03/14 04:28:06;;;;;;;8.43;3.45;;;10.20;99.90;;;;;;5049328;28;20415;-55
2023/03/14 04:30:32;;;;;;;7.05;2.85;;;10.20;99.90;;;;;;5048335;28;20602;-57
2023/03/14 04:32:57;;;;;;;8.30;2.92;;;10.20;99.90;;;;;;5048737;28;20048;-60
2023/03/14 04:35:23;;;;;;;6.82;2.83;;;10.20;99.90;;;;;;5046960;28;20024;-59
2023/03/14 04:37:49;;;;;;;9.10;3.40;;;10.20;99.90;;;;;;5048753;28;20044;-56
2023/03/14 04:40:15;;;;;;;6.00;3.20;;;10.20;99.90;;;;;;5048031;28;20506;-55
2023/03/14 04:42:41;;;;;;;5.13;2.60;;;10.20;99.90;;;;;;5048295;28;20071;-54
2023/03/14 04:45:07;;;;;;;7.30;2.55;;;10.20;99.90;;;;;;5050319;28;20052;-56
2023/03/14 04:47:33;;;;;;;4.32;1.85;;;10.20;99.90;;;;;;5050705;28;20118;-58
2023/03/14 04:49:59;;;;;;;2.15;1.20;;;10.20;99.90;;;;;;5041299;28;20053;-59
2023/03/14 04:52:24;;;;;;;2.20;1.10;;;10.10;99.90;;;;;;5048563;28;20086;-60
2023/03/14 04:54:50;;;;;;;2.03;0.70;;;10.00;99.90;;;;;;5046428;28;20025;-57
2023/03/14 04:57:16;;;;;;;2.15;0.93;;;9.80;99.90;;;;;;5048249;28;20017;-56
2023/03/14 04:59:41;;;;;;;0.93;0.70;;;9.70;99.90;;;;;;5047892;28;20154;-56
2023/03/14 05:02:07;;;;;;;2.50;1.10;;;9.50;99.90;;;;;;5052483;28;20046;-56
2023/03/14 05:04:33;;;;;;;2.45;1.00;;;9.40;99.90;;;;;;5053064;28;20041;-52
2023/03/14 05:06:59;;;;;;;2.08;0.77;;;9.30;99.90;;;;;;5048776;28;20056;-55
2023/03/14 05:09:25;;;;;;;2.72;0.50;;;9.20;99.90;;;;;;5052033;28;20064;-56
2023/03/14 05:11:51;;;;;;;1.00;0.80;;;9.10;99.90;;;;;;5052400;28;20553;-59
2023/03/14 05:14:16;;;;;;;2.17;0.98;;;9.00;99.90;;;;;;5052341;28;20525;-58
2023/03/14 05:16:42;;;;;;;4.05;0.98;;;9.00;99.90;;;;;;5050874;28;20025;-54
2023/03/14 05:19:07;;;;;;;4.07;0.95;;;8.90;99.90;;;;;;5050712;28;20032;-55
2023/03/14 05:21:33;;;;;;;1.83;0.77;;;8.90;99.90;;;;;;5050977;28;20048;-54
2023/03/14 05:23:59;;;;;;;2.45;0.98;;;8.80;99.90;;;;;;5052305;28;20025;-53
2023/03/14 05:26:24;;;;;;;1.38;0.68;;;8.80;99.90;;;;;;5051953;28;20515;-55
2023/03/14 05:28:50;;;;;;;3.15;1.08;;;8.70;99.90;;;;;;5052083;28;20037;-59
2023/03/14 05:31:15;;;;;;;4.22;0.98;;;8.70;99.90;;;;;;5050945;28;20070;-54
2023/03/14 05:33:41;;;;;;;2.55;1.00;;;8.60;99.90;;;;;;5052316;28;20074;-58
2023/03/14 05:36:07;;;;;;;2.72;1.08;;;8.60;99.90;;;;;;5051968;28;20032;-55
2023/03/14 05:38:33;;;;;;;1.48;0.90;;;8.60;99.90;;;;;;5051766;28;20045;-56
2023/03/14 05:40:59;;;;;;;2.10;0.90;;;8.60;99.90;;;;;;5051600;28;20327;-56
2023/03/14 05:43:24;;;;;;;2.13;0.93;;;8.50;99.90;;;;;;5050698;28;20026;-56
2023/03/14 05:45:50;;;;;;;3.97;1.20;;;8.50;99.90;;;;;;5051473;28;20100;-55
2023/03/14 05:48:16;;;;;;;3.22;1.38;;;8.50;99.90;;;;;;5051913;28;20025;-59
2023/03/14 05:50:42;;;;;;;1.88;1.38;;;8.50;99.90;;;;;;5049858;28;20048;-53
2023/03/14 05:53:07;;;;;;;2.05;1.50;;;8.50;99.90;;;;;;5051700;28;20414;-58
2023/03/14 05:55:33;;;;;;;2.80;1.70;;;8.50;99.90;;;;;;5051257;28;20031;-55
2023/03/14 05:57:59;;;;;;;2.50;1.80;;;8.50;99.90;;;;;;5052030;28;20025;-56
2023/03/14 06:00:24;;;;;;;4.07;2.45;;;8.50;99.90;;;;;;5051621;28;20025;-52
2023/03/14 06:02:50;;;;;;;4.22;2.45;;;8.50;99.90;;;;;;5045929;28;20037;-59
2023/03/14 06:05:15;;;;;;;4.15;1.90;;;8.50;99.90;;;;;;5051437;28;20458;-54
2023/03/14 06:07:41;;;;;;;4.07;2.25;;;8.50;99.90;;;;;;5051525;28;20120;-58
2023/03/14 06:10:07;;;;;;;3.65;2.53;;;8.40;99.90;;;;;;5050914;28;20060;-54
2023/03/14 06:12:33;;;;;;;3.40;2.03;;;8.50;99.90;;;;;;5050715;28;20040;-56
2023/03/14 06:14:58;;;;;;;3.83;2.63;;;8.50;99.90;;;;;;5051005;28;20548;-58
2023/03/14 06:17:24;;;;;;;4.63;2.60;;;8.50;99.90;;;;;;5050888;28;20049;-52
2023/03/14 06:19:49;;;;;;;7.18;2.70;;;8.40;99.90;;;;;;5050635;28;20028;-56
2023/03/14 06:22:15;;;;;;;3.72;3.28;;;8.50;99.90;;;;;;5050783;28;20033;-57
2023/03/14 06:24:41;;;;;;;5.57;3.78;;;8.50;99.90;;;;;;5050895;28;20053;-59
2023/03/14 06:27:06;;;;;;;7.45;3.53;;;8.60;99.90;;;;;;5050994;28;20028;-57
2023/03/14 06:29:32;;;;;;;6.80;3.80;;;8.60;99.90;;;;;;5049345;28;20078;-54
2023/03/14 06:31:57;;;;;;;5.55;4.70;;;8.60;99.90;;;;;;5051067;28;20021;-56
2023/03/14 06:34:23;;;;;;;5.00;4.45;;;8.60;99.90;;;;;;5050614;28;20044;-59
2023/03/14 06:36:49;;;;;;;7.93;4.70;;;8.70;99.90;;;;;;5050742;28;20025;-55
2023/03/14 06:39:14;;;;;;;8.15;4.93;;;8.70;99.90;;;;;;5050349;28;20096;-56
2023/03/14 06:41:40;;;;;;;6.95;4.80;;;8.80;99.90;;;;;;5051396;28;20079;-57
2023/03/14 06:44:05;;;;;;;7.80;4.95;;;8.80;99.90;;;;;;5050918;28;20073;-56
2023/03/14 06:46:31;;;;;;;7.18;4.72;;;8.80;99.90;;;;;;5050078;28;20020;-51
2023/03/14 06:48:56;;;;;;;7.85;5.20;;;8.80;99.90;;;;;;5050198;28;20323;-57
2023/03/14 06:51:22;;;;;;;9.38;6.07;;;8.80;99.90;;;;;;5050956;28;20064;-55
2023/03/14 06:53:48;;;;;;;6.68;5.68;;;8.80;99.90;;;;;;5050188;28;20035;-54
2023/03/14 06:56:13;;;;;;;7.75;5.03;;;8.90;99.90;;;;;;5050534;28;20028;-57
2023/03/14 06:58:39;;;;;;;9.15;5.43;;;8.90;99.90;;;;;;5050267;28;20116;-54
2023/03/14 07:01:05;;;;;;;9.13;6.18;;;9.00;99.90;;;;;;5048953;28;20025;-57
2023/03/14 07:03:31;;;;;;;8.98;5.75;;;9.10;99.90;;;;;;5050078;28;20036;-53
2023/03/14 07:05:57;;;;;;;8.82;4.95;;;9.00;99.90;;;;;;5050871;28;20021;-55
2023/03/14 07:08:22;;;;;;;6.95;4.60;;;9.00;99.90;;;;;;5050440;28;20086;-55
2023/03/14 07:10:48;;;;;;;9.40;5.55;;;9.00;99.90;;;;;;5050408;28;20369;-58
2023/03/14 07:13:14;;;;;;;8.45;5.75;;;9.10;99.90;;;;;;5050170;28;20029;-54
2023/03/14 07:15:39;;;;;;;8.48;5.07;;;9.10;99.90;;;;;;5050253;28;20383;-57
2023/03/14 07:18:05;;;;;;;8.63;4.40;;;9.10;99.90;;;;;;5050519;28;20043;-53
2023/03/14 07:20:32;;;;;;;6.47;4.20;;;9.10;99.90;;;;;;5049367;28;20036;-57
2023/03/14 07:22:59;;;;;;;6.88;3.83;;;9.10;99.90;;;;;;5049502;28;20024;-51
2023/03/14 07:25:25;;;;;;;5.38;3.60;;;9.10;99.90;;;;;;5049436;28;20039;-56
2023/03/14 07:27:51;;;;;;;6.55;3.05;;;9.10;99.90;;;;;;5049963;28;20021;-54
2023/03/14 07:30:17;;;;;;;8.57;4.30;;;9.10;99.90;;;;;;5049742;28;20017;-56
2023/03/14 07:32:42;;;;;;;6.97;3.25;;;9.20;99.90;;;;;;5049632;28;20029;-55
2023/03/14 07:35:08;;;;;;;4.60;3.13;;;9.20;99.90;;;;;;5049981;28;20028;-56
2023/03/14 07:37:34;;;;;;;7.43;3.42;;;9.20;99.90;;;;;;5050011;28;20146;-57
2023/03/14 07:40:00;;;;;;;8.18;3.63;;;9.30;99.90;;;;;;5049588;28;20461;-54
2023/03/14 07:42:25;;;;;;;5.13;2.92;;;9.30;99.90;;;;;;5050161;28;20021;-58
2023/03/14 07:44:51;;;;;;;7.38;3.30;;;9.40;99.90;;;;;;5049951;28;20116;-58
2023/03/14 07:47:16;;;;;;;7.05;2.72;;;9.50;99.90;;;;;;5049703;28;20192;-55
2023/03/14 07:49:42;;;;;;;6.25;2.58;;;9.50;99.90;;;;;;5049877;28;20033;-57
2023/03/14 07:52:07;;;;;;;8.70;2.20;;;9.50;99.90;;;;;;5049845;28;20025;-57
2023/03/14 07:54:33;;;;;;;2.92;1.95;;;9.50;99.90;;;;;;5049738;28;20037;-57
2023/03/14 07:57:00;;;;;;;6.80;2.40;;;9.40;99.90;;;;;;5049591;28;20013;-54
2023/03/14 07:59:26;;;;;;;4.53;2.47;;;9.40;99.90;;;;;;5049397;28;20422;-58
2023/03/14 08:01:52;;;;;;;5.90;2.42;;;9.40;99.90;;;;;;5048924;28;20471;-54
2023/03/14 08:04:18;;;;;;;7.57;2.92;;;9.40;99.90;;;;;;5049674;28;20035;-60
2023/03/14 08:06:43;;;;;;;3.22;1.95;;;9.40;99.90;;;;;;5049722;28;20502;-55
2023/03/14 08:09:09;;;;;;;5.53;2.47;;;9.40;99.90;;;;;;5048750;28;20033;-55
2023/03/14 08:11:34;;;;;;;6.70;3.78;;;9.40;99.90;;;;;;5049712;28;20025;-55
2023/03/14 08:14:00;;;;;;;5.43;2.55;;;9.50;99.90;;;;;;5049149;28;20061;-59
2023/03/14 08:16:25;;;;;;;3.83;2.42;;;9.50;99.90;;;;;;5049529;28;20450;-56
2023/03/14 08:18:51;;;;;;;7.15;2.60;;;9.60;99.90;;;;;;5049294;28;20468;-55
2023/03/14 08:21:17;;;;;;;4.20;2.20;;;9.60;99.90;;;;;;5047899;28;20467;-55
2023/03/14 08:23:42;;;;;;;4.40;2.40;;;9.60;99.90;;;;;;5049390;28;20422;-54
2023/03/14 08:26:08;;;;;;;5.32;2.55;;;9.70;99.90;;;;;;5050009;28;20079;-53
2023/03/14 08:28:34;;;;;;;4.43;2.53;;;9.70;99.90;;;;;;5050171;28;20183;-57
2023/03/14 08:31:00;;;;;;;4.38;2.05;;;9.70;99.90;;;;;;5048924;28;20033;-57
2023/03/14 08:33:27;;;;;;;3.55;2.03;;;9.80;99.90;;;;;;5048889;28;20033;-55
2023/03/14 08:35:54;;;;;;;4.20;2.00;;;9.80;99.90;;;;;;5047842;28;20036;-54
2023/03/14 08:38:20;;;;;;;5.63;1.65;;;9.80;99.90;;;;;;5049062;28;20028;-58
2023/03/14 08:40:45;;;;;;;4.80;1.85;;;9.80;99.90;;;;;;5048846;28;20021;-56
2023/03/14 08:43:11;;;;;;;5.75;1.75;;;9.80;99.90;;;;;;5043697;28;20048;-58
2023/03/14 08:45:36;;;;;;;5.00;1.65;;;9.90;99.90;;;;;;5048778;28;20025;-57
2023/03/14 08:48:02;;;;;;;3.47;1.42;;;9.90;99.90;;;;;;5048867;28;20090;-56
2023/03/14 08:50:28;;;;;;;2.17;1.27;;;9.80;99.90;;;;;;5047829;28;20108;-58
2023/03/14 08:52:54;;;;;;;2.45;1.55;;;9.80;99.90;;;;;;5049536;28;20120;-59
2023/03/14 08:55:19;;;;;;;3.13;1.50;;;9.80;99.90;;;;;;5049162;28;20033;-59
2023/03/14 08:57:45;;;;;;;5.43;2.28;;;9.70;99.90;;;;;;5048708;28;20493;-56
2023/03/14 09:00:15;;;;;;;3.95;1.70;;;9.70;99.90;;;;;;5043763;28;20021;-57
2023/03/14 09:02:41;;;;;;;6.72;1.80;;;9.60;99.90;;;;;;5048650;28;20172;-57
2023/03/14 09:05:07;;;;;;;4.25;1.92;;;9.60;99.90;;;;;;5048646;28;20021;-58
2023/03/14 09:07:33;;;;;;;2.55;2.05;;;9.70;99.90;;;;;;5048432;28;20495;-57
2023/03/14 09:09:59;;;;;;;4.85;2.90;;;9.70;99.90;;;;;;5047481;28;20031;-56
2023/03/14 09:12:24;;;;;;;7.35;2.58;;;9.70;99.90;;;;;;5048509;28;20079;-56
2023/03/14 09:14:50;;;;;;;5.07;2.00;;;9.70;99.90;;;;;;5048808;28;20033;-60
2023/03/14 09:17:15;;;;;;;4.25;2.20;;;9.70;99.90;;;;;;5047760;28;20033;-55
2023/03/14 09:19:41;;;;;;;4.00;2.25;;;9.70;99.90;;;;;;5049111;28;20120;-56
2023/03/14 09:22:06;;;;;;;4.63;2.38;;;9.70;99.90;;;;;;5048725;28;20094;-58
2023/03/14 09:24:32;;;;;;;4.30;2.50;;;9.70;99.90;;;;;;5048820;28;20036;-59
2023/03/14 09:26:58;;;;;;;6.88;2.47;;;9.80;99.90;;;;;;5049053;28;20028;-57
2023/03/14 09:29:24;;;;;;;10.70;3.70;;;9.80;99.90;;;;;;5047002;28;20170;-59
2023/03/14 09:31:50;;;;;;;8.90;2.58;;;9.80;99.90;;;;;;5048796;28;20033;-55
2023/03/14 09:34:15;;;;;;;7.47;3.20;;;9.70;99.90;;;;;;5048455;28;20517;-57
2023/03/14 09:36:44;;;;;;;6.97;2.50;;;9.60;99.90;;;;;;5048053;28;20025;-58
2023/03/14 09:39:09;;;;;;;4.90;2.95;;;9.60;99.90;;;;;;5047984;28;20021;-60
2023/03/14 09:41:40;;;;;;;4.50;2.58;;;9.60;99.90;;;;;;5047907;28;20112;-60
2023/03/14 09:44:19;;;;;;;2.20;1.13;;;9.50;99.90;;;;;;5047999;28;20037;-59
2023/03/14 09:46:50;;;;;;;4.50;1.13;;;9.20;99.90;;;;;;5048876;28;20037;-60
2023/03/14 09:49:44;;;;;;;3.50;0.95;;;9.10;99.90;;;;;;5051557;28;20033;-61
2023/03/14 09:52:30;;;;;;;1.58;0.60;;;8.80;99.90;;;;;;5046663;28;20041;-61
2023/03/14 09:55:06;;;;;;;2.70;1.00;;;8.40;99.90;;;;;;5050726;28;20021;-58
2023/03/14 09:57:35;;;;;;;2.95;0.95;;;8.30;99.90;;;;;;5051564;28;20037;-61
2023/03/14 10:00:13;;;;;;;1.90;0.80;;;8.30;99.90;;;;;;5051327;28;20594;-59
2023/03/14 10:02:39;;;;;;;1.75;0.82;;;8.20;99.90;;;;;;5052229;28;20025;-60
2023/03/14 10:05:14;;;;;;;1.50;0.85;;;8.00;99.90;;;;;;5051736;28;20229;-56
2023/03/14 10:07:40;;;;;;;3.05;0.75;;;7.80;99.90;;;;;;5051645;28;20025;-59
2023/03/14 10:10:13;;;;;;;2.45;0.63;;;7.50;99.90;;;;;;5051517;28;20021;-59
2023/03/14 10:12:38;;;;;;;1.70;0.57;;;7.30;99.90;;;;;;5050436;28;20115;-55
2023/03/14 10:15:12;;;;;;;2.88;0.70;;;7.10;99.90;;;;;;5051395;28;20590;-60
2023/03/14 10:17:40;;;;;;;1.77;0.75;;;6.90;99.90;;;;;;5051273;28;20552;-55
2023/03/14 10:20:06;;;;;;;1.92;0.55;;;6.70;99.90;;;;;;5050307;28;20024;-60
2023/03/14 10:22:32;;;;;;;1.23;0.90;;;6.50;99.90;;;;;;5051527;28;20025;-58
2023/03/14 10:25:37;;;;;;;1.15;0.50;;;6.30;99.90;;;;;;5051514;28;20035;-55
2023/03/14 10:28:04;;;;;;;0.32;0.32;;;6.20;99.90;;;;;;5045023;28;20035;-58
2023/03/14 10:30:38;;;;;;;1.30;0.80;;;6.00;99.90;;;;;;5051518;28;20029;-59
2023/03/14 10:33:34;;;;;;;1.30;0.50;;;5.60;99.90;;;;;;5043782;28;20027;-57
2023/03/14 10:36:21;;;;;;;3.50;0.60;;;5.50;99.90;;;;;;5047492;28;20065;-58
2023/03/14 10:38:47;;;;;;;0.50;0.50;;;5.20;99.90;;;;;;5050867;28;20147;-55
2023/03/14 10:41:24;;;;;;;1.30;0.25;;;5.00;99.90;;;;;;5050903;28;20366;-59
2023/03/14 10:43:53;;;;;;;0.50;0.30;;;4.80;99.90;;;;;;5043040;28;20088;-58
2023/03/14 10:46:20;;;;;;;2.53;0.85;;;4.80;99.90;;;;;;5050773;28;20098;-58
2023/03/14 10:48:46;;;;;;;1.23;0.40;;;4.70;99.90;;;;;;5050692;28;20106;-59
2023/03/14 10:51:23;;;;;;;2.35;0.73;;;4.70;99.90;;;;;;5050800;28;20490;-57
2023/03/14 10:53:58;;;;;;;1.73;0.40;;;4.40;99.90;;;;;;5050901;28;20025;-58
2023/03/14 10:56:25;;;;;;;2.33;0.63;;;4.30;99.90;;;;;;5050768;28;20109;-57
2023/03/14 10:58:55;;;;;;;0.57;0.28;;;4.30;99.90;;;;;;5042698;28;20021;-59
2023/03/14 11:01:59;;;;;;;1.60;0.30;;;4.30;99.90;;;;;;5050958;28;20091;-59
2023/03/14 11:04:39;;;;;;;1.00;0.47;;;4.40;99.90;;;;;;5031730;28;20490;-60
2023/03/14 11:07:32;;;;;;;0.95;0.20;;;4.40;99.90;;;;;;5047391;28;20033;-59
2023/03/14 11:10:19;;;;;;;1.40;0.20;;;4.40;99.90;;;;;;5043384;28;20025;-59
2023/03/14 11:13:20;;;;;;;1.63;0.32;;;4.30;99.90;;;;;;5050173;28;20374;-56
2023/03/14 11:16:11;;;;;;;3.00;0.88;;;4.30;99.90;;;;;;5050239;28;20071;-60
2023/03/14 11:19:10;;;;;;;3.17;0.30;;;4.20;99.90;;;;;;5050187;28;20044;-53
2023/03/14 11:21:54;;;;;;;2.40;0.63;;;4.20;99.90;;;;;;5046605;28;20380;-59
2023/03/14 11:25:08;;;;;;;4.22;0.60;;;4.10;99.90;;;;;;5050698;28;20045;-57
2023/03/14 11:27:39;;;;;;;4.07;0.80;;;4.20;99.90;;;;;;4982690;28;20030;-58
2023/03/14 11:30:24;;;;;;;3.05;0.82;;;4.20;99.90;;;;;;5050079;28;20082;-55
2023/03/14 11:33:09;;;;;;;1.52;0.65;;;4.20;99.90;;;;;;5050347;28;20049;-56
2023/03/14 11:35:53;;;;;;;6.30;0.85;;;4.30;99.90;;;;;;5050297;28;20044;-56
2023/03/14 11:38:42;;;;;;;2.35;1.00;;;4.50;99.90;;;;;;5046250;28;20025;-54
2023/03/14 11:41:27;;;;;;;3.63;0.88;;;4.60;99.90;;;;;;5046955;28;20048;-57
2023/03/14 11:43:58;;;;;;;2.20;0.57;;;4.60;99.90;;;;;;5042490;28;20037;-56
2023/03/14 11:46:33;;;;;;;4.57;0.80;;;4.70;99.90;;;;;;5048275;28;20041;-57
2023/03/14 11:49:06;;;;;;;5.28;1.02;;;4.80;99.90;;;;;;5042605;28;20033;-59
2023/03/14 11:51:38;;;;;;;1.23;0.70;;;4.80;99.90;;;;;;5050083;28;20055;-54
2023/03/14 11:54:15;;;;;;;2.40;0.60;;;4.80;99.90;;;;;;5050135;28;20025;-53
2023/03/14 11:56:55;;;;;;;2.80;0.90;;;4.90;99.90;;;;;;5048303;28;20468;-59
2023/03/14 11:59:29;;;;;;;4.47;1.38;;;4.80;99.90;;;;;;5050121;28;20083;-54
2023/03/14 12:02:00;;;;;;;6.05;1.20;;;4.70;99.90;;;;;;5042222;28;20057;-53
2023/03/14 12:04:47;;;;;;;5.40;1.10;;;4.80;99.90;;;;;;5049981;28;20041;-54
2023/03/14 12:07:23;;;;;;;3.80;0.80;;;4.80;99.90;;;;;;5047456;28;20028;-58
2023/03/14 12:09:50;;;;;;;4.47;1.15;;;4.90;99.90;;;;;;5048984;28;20028;-58
2023/03/14 12:12:21;;;;;;;7.07;1.73;;;4.90;99.90;;;;;;5049631;28;20048;-57
2023/03/14 12:14:54;;;;;;;2.58;0.80;;;5.00;99.90;;;;;;5046378;28;20082;-58
2023/03/14 12:17:25;;;;;;;6.55;1.10;;;5.10;99.90;;;;;;5048634;28;20052;-59
2023/03/14 12:20:06;;;;;;;6.95;0.80;;;5.00;99.90;;;;;;5058028;28;20379;-58
2023/03/14 12:22:42;;;;;;;6.40;1.60;;;5.00;99.90;;;;;;5049186;28;20016;-56
2023/03/14 12:25:11;;;;;;;10.65;1.13;;;5.00;99.90;;;;;;5049447;28;20115;-56
2023/03/14 12:27:45;;;;;;;4.10;1.20;;;5.00;99.90;;;;;;5048914;28;20017;-60
2023/03/14 12:30:36;;;;;;;3.80;1.05;;;5.00;99.90;;;;;;5049223;28;20024;-58
2023/03/14 12:33:20;;;;;;;9.80;1.35;;;5.00;99.90;;;;;;5041503;28;20024;-58
2023/03/14 12:35:57;;;;;;;5.70;1.40;;;5.00;99.90;;;;;;5048415;28;20154;-59
2023/03/14 12:38:45;;;;;;;8.73;1.48;;;5.00;99.90;;;;;;5048864;28;20024;-56
2023/03/14 12:41:28;;;;;;;5.70;1.63;;;5.00;99.90;;;;;;5046526;28;20017;-60
2023/03/14 12:43:55;;;;;;;4.70;1.52;;;5.10;99.90;;;;;;5049227;28;20104;-60
2023/03/14 12:46:27;;;;;;;5.93;1.50;;;5.10;99.90;;;;;;5048948;28;20369;-57
2023/03/14 12:49:02;;;;;;;8.85;1.45;;;5.10;99.90;;;;;;5048328;28;20044;-58
2023/03/14 12:51:45;;;;;;;10.93;2.25;;;5.10;99.90;;;;;;5048992;28;20415;-56
2023/03/14 12:54:45;;;;;;;6.95;1.83;;;5.00;99.90;;;;;;5043464;28;20379;-53
2023/03/14 12:57:14;;;;;;;6.97;1.27;;;5.00;99.90;;;;;;5042014;28;20021;-55
2023/03/14 12:59:57;;;;;;;6.35;1.77;;;5.10;99.90;;;;;;5048684;28;20040;-56
2023/03/14 13:02:44;;;;;;;3.17;1.55;;;5.10;99.90;;;;;;5048839;28;20116;-54
2023/03/14 13:05:16;;;;;;;9.52;2.28;;;5.10;99.90;;;;;;5046579;28;20043;-58
2023/03/14 13:07:47;;;;;;;4.05;1.45;;;5.10;99.90;;;;;;5048760;28;20067;-59